createdAt,value
2018-11-23T00:01:25.894Z,20.77
2018-11-23T00:02:25.902Z,20.74
2018-11-23T00:04:18.979Z,20.81
2018-11-23T00:05:18.815Z,20.81
2018-11-23T00:07:11.731Z,20.85
2018-11-23T00:08:11.739Z,20.95
2018-11-23T00:10:04.712Z,20.87
2018-11-23T00:11:04.650Z,20.84
2018-11-23T00:12:57.559Z,20.87
2018-11-23T00:13:57.579Z,20.89
2018-11-23T00:15:50.733Z,20.80
2018-11-23T00:16:50.485Z,20.78
2018-11-23T00:18:43.391Z,20.78
2018-11-23T00:19:43.400Z,20.77
2018-11-23T00:21:36.682Z,20.77
2018-11-23T00:22:36.423Z,20.85
2018-11-23T00:24:29.342Z,20.82
2018-11-23T00:25:29.348Z,20.90
2018-11-23T00:27:22.437Z,20.82
2018-11-23T00:28:22.278Z,20.81
2018-11-23T00:30:15.274Z,20.80
2018-11-23T00:31:15.209Z,20.75
2018-11-23T00:33:08.382Z,20.67
2018-11-23T00:34:08.156Z,20.75
2018-11-23T00:36:01.051Z,20.74
2018-11-23T00:37:01.052Z,20.84
2018-11-23T00:38:54.034Z,20.92
2018-11-23T00:39:53.962Z,20.93
2018-11-23T00:41:46.867Z,20.99
2018-11-23T00:42:46.884Z,21.02
2018-11-23T00:44:39.963Z,21.06
2018-11-23T00:45:43.020Z,21.05
2018-11-23T00:47:32.710Z,21.11
2018-11-23T00:48:32.711Z,21.10
2018-11-23T00:50:25.698Z,21.20
2018-11-23T00:51:25.630Z,21.18
2018-11-23T00:53:18.547Z,21.24
2018-11-23T00:54:18.547Z,21.20
2018-11-23T00:56:11.708Z,21.18
2018-11-23T00:57:11.462Z,21.18
2018-11-23T00:59:04.392Z,21.22
2018-11-23T01:00:04.393Z,21.37
2018-11-23T01:01:57.573Z,21.48
2018-11-23T01:02:57.313Z,21.48
2018-11-23T01:04:50.213Z,21.54
2018-11-23T01:05:50.220Z,21.47
2018-11-23T01:07:43.389Z,21.51
2018-11-23T01:08:43.136Z,21.48
2018-11-23T01:10:36.049Z,21.51
2018-11-23T01:11:36.057Z,21.47
2018-11-23T01:13:29.237Z,21.52
2018-11-23T01:14:28.980Z,21.63
2018-11-23T01:16:21.881Z,21.52
2018-11-23T01:17:21.918Z,21.54
2018-11-23T01:19:14.959Z,21.54
2018-11-23T01:20:14.816Z,21.61
2018-11-23T01:22:07.714Z,21.51
2018-11-23T01:23:07.729Z,21.57
2018-11-23T01:25:00.900Z,21.51
2018-11-23T01:26:00.645Z,21.55
2018-11-23T01:27:53.555Z,21.58
2018-11-23T01:28:53.570Z,21.59
2018-11-23T01:30:46.637Z,21.54
2018-11-23T01:31:46.479Z,21.57
2018-11-23T01:33:39.390Z,21.69
2018-11-23T01:34:39.423Z,21.70
2018-11-23T01:36:33.103Z,21.45
2018-11-23T01:37:32.320Z,21.51
2018-11-23T01:39:25.234Z,21.54
2018-11-23T01:40:25.242Z,21.76
2018-11-23T01:42:18.216Z,21.77
2018-11-23T01:43:18.147Z,21.95
2018-11-23T01:45:11.062Z,21.99
2018-11-23T01:46:11.065Z,21.99
2018-11-23T01:48:04.227Z,21.96
2018-11-23T01:49:03.988Z,21.96
2018-11-23T01:50:56.897Z,22.11
2018-11-23T01:51:56.952Z,22.05
2018-11-23T01:53:50.084Z,22.08
2018-11-23T01:54:49.824Z,22.13
2018-11-23T01:56:42.736Z,22.03
2018-11-23T01:57:42.757Z,22.04
2018-11-23T01:59:35.824Z,22.03
2018-11-23T02:00:35.674Z,22.04
2018-11-23T02:02:28.580Z,22.10
2018-11-23T02:03:28.595Z,22.07
2018-11-23T02:05:21.791Z,22.05
2018-11-23T02:06:21.513Z,22.03
2018-11-23T02:08:14.411Z,21.92
2018-11-23T02:09:14.419Z,21.90
2018-11-23T02:11:07.407Z,21.89
2018-11-23T02:12:07.349Z,22.10
2018-11-23T02:14:00.253Z,22.14
2018-11-23T02:15:00.262Z,22.22
2018-11-23T02:16:53.432Z,22.22
2018-11-23T02:17:53.178Z,22.30
2018-11-23T02:19:46.647Z,22.26
2018-11-23T02:20:46.102Z,22.25
2018-11-23T02:22:40.064Z,22.15
2018-11-23T02:23:39.017Z,22.23
2018-11-23T02:25:31.928Z,22.20
2018-11-23T02:26:31.949Z,22.22
2018-11-23T02:28:25.112Z,22.36
2018-11-23T02:29:24.856Z,22.43
2018-11-23T02:31:17.771Z,22.45
2018-11-23T02:32:17.784Z,22.30
2018-11-23T02:34:10.953Z,22.35
2018-11-23T02:35:10.697Z,22.43
2018-11-23T02:37:03.603Z,22.45
2018-11-23T02:38:03.620Z,22.48
2018-11-23T02:39:56.783Z,22.62
2018-11-23T02:40:56.542Z,22.53
2018-11-23T02:42:49.474Z,22.56
2018-11-23T02:43:49.459Z,22.60
2018-11-23T02:45:47.508Z,22.65
2018-11-23T02:46:42.387Z,22.69
2018-11-23T02:48:35.293Z,22.78
2018-11-23T02:49:35.309Z,22.80
2018-11-23T02:51:28.384Z,22.78
2018-11-23T02:52:28.231Z,22.78
2018-11-23T02:54:21.682Z,22.78
2018-11-23T02:55:21.171Z,22.81
2018-11-23T02:57:14.296Z,22.96
2018-11-23T02:58:14.107Z,22.96
2018-11-23T03:00:07.020Z,22.90
2018-11-23T03:01:07.029Z,22.90
2018-11-23T03:03:00.197Z,22.88
2018-11-23T03:03:59.959Z,22.90
2018-11-23T03:05:53.418Z,23.06
2018-11-23T03:06:52.870Z,23.09
2018-11-23T03:08:46.050Z,23.18
2018-11-23T03:09:45.793Z,23.22
2018-11-23T03:11:38.706Z,23.09
2018-11-23T03:12:38.717Z,22.93
2018-11-23T03:14:31.922Z,22.59
2018-11-23T03:15:31.664Z,22.53
2018-11-23T03:17:24.571Z,22.85
2018-11-23T03:18:24.586Z,22.96
2018-11-23T03:20:17.754Z,23.02
2018-11-23T03:21:17.502Z,23.05
2018-11-23T03:23:10.416Z,22.95
2018-11-23T03:24:10.429Z,22.81
2018-11-23T03:26:03.493Z,22.65
2018-11-23T03:27:03.346Z,22.75
2018-11-23T03:28:56.261Z,22.78
2018-11-23T03:29:56.272Z,22.91
2018-11-23T03:31:49.482Z,22.95
2018-11-23T03:32:49.194Z,22.95
2018-11-23T03:34:42.110Z,22.96
2018-11-23T03:35:42.130Z,22.80
2018-11-23T03:37:35.116Z,22.90
2018-11-23T03:38:35.055Z,22.93
2018-11-23T03:40:27.959Z,23.03
2018-11-23T03:41:27.967Z,23.06
2018-11-23T03:43:21.146Z,23.05
2018-11-23T03:44:20.890Z,23.14
2018-11-23T03:46:13.806Z,22.78
2018-11-23T03:47:13.814Z,22.78
2018-11-23T03:49:06.984Z,22.80
2018-11-23T03:50:06.737Z,22.68
2018-11-23T03:51:59.661Z,22.75
2018-11-23T03:53:00.481Z,22.93
2018-11-23T03:54:52.731Z,23.03
2018-11-23T03:55:52.580Z,23.13
2018-11-23T03:57:45.490Z,23.36
2018-11-23T03:58:45.508Z,23.38
2018-11-23T04:00:38.668Z,23.46
2018-11-23T04:01:38.427Z,23.44
2018-11-23T04:03:31.337Z,23.44
2018-11-23T04:04:31.346Z,23.58
2018-11-23T04:06:24.515Z,23.47
2018-11-23T04:07:24.261Z,23.13
2018-11-23T04:09:17.726Z,22.93
2018-11-23T04:10:17.184Z,23.09
2018-11-23T04:12:10.360Z,22.99
2018-11-23T04:13:10.104Z,22.91
2018-11-23T04:15:03.038Z,23.05
2018-11-23T04:16:03.040Z,23.15
2018-11-23T04:17:56.196Z,23.28
2018-11-23T04:18:55.952Z,23.38
2018-11-23T04:20:48.863Z,23.44
2018-11-23T04:21:48.878Z,23.44
2018-11-23T04:23:41.996Z,23.44
2018-11-23T04:24:41.844Z,23.58
2018-11-23T04:26:34.704Z,23.65
2018-11-23T04:27:34.718Z,23.59
2018-11-23T04:29:27.831Z,23.34
2018-11-23T04:30:27.658Z,23.28
2018-11-23T04:32:20.565Z,23.33
2018-11-23T04:33:20.622Z,23.28
2018-11-23T04:35:13.627Z,23.44
2018-11-23T04:36:13.500Z,23.51
2018-11-23T04:38:06.406Z,23.33
2018-11-23T04:39:06.425Z,23.31
2018-11-23T04:40:59.675Z,23.28
2018-11-23T04:41:59.538Z,23.24
2018-11-23T04:43:52.444Z,23.28
2018-11-23T04:44:52.465Z,23.27
2018-11-23T04:46:46.424Z,23.18
2018-11-23T04:47:45.381Z,23.24
2018-11-23T04:49:38.295Z,23.24
2018-11-23T04:50:38.312Z,23.27
2018-11-23T04:52:31.350Z,23.40
2018-11-23T04:53:31.226Z,23.36
2018-11-23T04:55:24.138Z,23.43
2018-11-23T04:56:24.154Z,23.52
2018-11-23T04:58:17.206Z,23.63
2018-11-23T04:59:17.078Z,23.74
2018-11-23T05:01:09.981Z,23.88
2018-11-23T05:02:09.993Z,23.92
2018-11-23T05:04:03.095Z,24.02
2018-11-23T05:05:02.954Z,23.99
2018-11-23T05:06:55.864Z,23.88
2018-11-23T05:07:55.880Z,23.88
2018-11-23T05:09:48.937Z,23.93
2018-11-23T05:10:48.799Z,24.03
2018-11-23T05:12:41.711Z,23.99
2018-11-23T05:13:41.729Z,24.00
2018-11-23T05:15:34.791Z,24.02
2018-11-23T05:16:34.640Z,23.92
2018-11-23T05:18:27.590Z,23.98
2018-11-23T05:19:27.577Z,24.03
2018-11-23T05:21:20.684Z,24.05
2018-11-23T05:22:20.500Z,24.02
2018-11-23T05:24:13.414Z,23.99
2018-11-23T05:25:13.427Z,23.96
2018-11-23T05:27:06.607Z,23.93
2018-11-23T05:28:06.346Z,23.90
2018-11-23T05:29:59.264Z,23.93
2018-11-23T05:30:59.275Z,24.03
2018-11-23T05:32:52.576Z,23.98
2018-11-23T05:33:52.203Z,23.92
2018-11-23T05:35:45.107Z,23.86
2018-11-23T05:36:45.118Z,23.70
2018-11-23T05:38:39.450Z,23.81
2018-11-23T05:39:38.042Z,23.88
2018-11-23T05:41:30.950Z,23.95
2018-11-23T05:42:30.972Z,23.93
2018-11-23T05:44:26.211Z,24.00
2018-11-23T05:45:23.908Z,24.03
2018-11-23T05:47:16.814Z,24.08
2018-11-23T05:48:16.818Z,24.18
2018-11-23T05:50:11.213Z,24.20
2018-11-23T05:51:09.751Z,24.28
2018-11-23T05:53:02.651Z,24.36
2018-11-23T05:54:02.677Z,24.36
2018-11-23T05:55:55.882Z,24.43
2018-11-23T05:56:55.597Z,24.44
2018-11-23T05:58:48.508Z,24.50
2018-11-23T05:59:48.520Z,24.45
2018-11-23T06:01:41.572Z,24.43
2018-11-23T06:02:41.449Z,24.39
2018-11-23T06:04:34.419Z,24.17
2018-11-23T06:05:34.372Z,24.02
2018-11-23T06:07:27.416Z,24.07
2018-11-23T06:08:27.292Z,23.98
2018-11-23T06:10:20.316Z,24.03
2018-11-23T06:11:20.334Z,23.84
2018-11-23T06:13:13.491Z,23.80
2018-11-23T06:14:13.251Z,23.76
2018-11-23T06:16:06.171Z,23.76
2018-11-23T06:17:06.173Z,23.70
2018-11-23T06:18:59.235Z,23.53
2018-11-23T06:19:59.095Z,23.47
2018-11-23T06:21:52.023Z,23.56
2018-11-23T06:22:52.019Z,23.55
2018-11-23T06:24:45.073Z,23.78
2018-11-23T06:25:44.943Z,23.83
2018-11-23T06:27:37.867Z,23.96
2018-11-23T06:28:37.865Z,24.00
2018-11-23T06:30:30.909Z,24.07
2018-11-23T06:31:30.780Z,24.03
2018-11-23T06:33:23.692Z,24.07
2018-11-23T06:34:23.703Z,23.84
2018-11-23T06:36:16.769Z,23.73
2018-11-23T06:37:16.647Z,23.71
2018-11-23T06:39:09.580Z,23.70
2018-11-23T06:40:09.569Z,23.74
2018-11-23T06:42:02.643Z,23.80
2018-11-23T06:43:02.485Z,23.84
2018-11-23T06:44:55.598Z,23.77
2018-11-23T06:45:55.606Z,23.83
2018-11-23T06:47:48.673Z,23.93
2018-11-23T06:48:48.538Z,23.93
2018-11-23T06:50:41.445Z,23.99
2018-11-23T06:51:41.456Z,24.00
2018-11-23T06:53:34.511Z,24.10
2018-11-23T06:54:34.376Z,24.00
2018-11-23T06:56:27.845Z,23.77
2018-11-23T06:57:27.301Z,23.55
2018-11-23T06:59:20.411Z,23.63
2018-11-23T07:00:20.227Z,23.74
2018-11-23T07:02:13.131Z,23.70
2018-11-23T07:03:13.146Z,23.73
2018-11-23T07:05:06.194Z,23.73
2018-11-23T07:06:06.074Z,23.81
2018-11-23T07:07:58.977Z,24.02
2018-11-23T07:08:58.995Z,23.96
2018-11-23T07:10:52.951Z,23.98
2018-11-23T07:11:51.909Z,23.93
2018-11-23T07:13:44.817Z,23.77
2018-11-23T07:14:44.826Z,23.80
2018-11-23T07:16:37.880Z,24.02
2018-11-23T07:17:37.752Z,24.02
2018-11-23T07:19:30.663Z,23.99
2018-11-23T07:20:30.677Z,24.02
2018-11-23T07:22:23.736Z,23.81
2018-11-23T07:23:23.595Z,23.76
2018-11-23T07:25:16.505Z,23.81
2018-11-23T07:26:16.517Z,23.81
2018-11-23T07:28:15.433Z,23.88
2018-11-23T07:29:09.440Z,23.92
2018-11-23T07:31:02.650Z,24.10
2018-11-23T07:32:02.369Z,24.21
2018-11-23T07:33:55.417Z,24.21
2018-11-23T07:34:55.287Z,24.13
2018-11-23T07:36:48.196Z,24.15
2018-11-23T07:37:48.225Z,24.15
2018-11-23T07:39:42.187Z,23.98
2018-11-23T07:40:41.132Z,23.99
2018-11-23T07:42:34.052Z,23.98
2018-11-23T07:43:34.059Z,23.98
2018-11-23T07:45:27.170Z,23.95
2018-11-23T07:46:26.977Z,24.02
2018-11-23T07:48:19.890Z,23.99
2018-11-23T07:49:19.905Z,23.98
2018-11-23T07:51:13.027Z,23.92
2018-11-23T07:52:12.824Z,23.95
2018-11-23T07:54:05.727Z,23.96
2018-11-23T07:55:05.744Z,23.98
2018-11-23T07:56:58.869Z,24.08
2018-11-23T07:57:58.660Z,23.96
2018-11-23T07:59:51.789Z,24.10
2018-11-23T08:00:51.584Z,24.05
2018-11-23T08:02:45.378Z,24.11
2018-11-23T08:03:44.509Z,24.10
2018-11-23T08:05:37.480Z,24.05
2018-11-23T08:06:37.442Z,24.08
2018-11-23T08:13:06.019Z,24.30
2018-11-23T08:14:05.182Z,24.32
2018-11-23T08:15:58.109Z,24.20
2018-11-23T08:16:58.121Z,24.18
2018-11-23T08:18:52.587Z,24.08
2018-11-23T08:19:51.048Z,24.10
2018-11-23T08:21:44.238Z,24.10
2018-11-23T08:22:43.960Z,24.21
2018-11-23T08:24:37.442Z,24.25
2018-11-23T08:25:36.891Z,24.29
2018-11-23T08:27:30.060Z,24.25
2018-11-23T08:28:29.812Z,24.26
2018-11-23T08:30:22.727Z,24.17
2018-11-23T08:31:22.733Z,24.25
2018-11-23T08:33:15.917Z,24.18
2018-11-23T08:34:15.655Z,24.13
2018-11-23T08:36:08.584Z,24.20
2018-11-23T08:37:08.600Z,24.23
2018-11-23T08:39:04.739Z,24.28
2018-11-23T08:40:01.523Z,24.26
2018-11-23T08:41:54.495Z,24.23
2018-11-23T08:42:54.505Z,24.21
2018-11-23T08:44:47.589Z,24.18
2018-11-23T08:45:47.436Z,24.20
2018-11-23T08:47:40.380Z,24.26
2018-11-23T08:48:40.387Z,24.36
2018-11-23T08:50:34.133Z,24.40
2018-11-23T08:51:33.312Z,24.28
2018-11-23T08:53:27.964Z,24.25
2018-11-23T08:54:26.233Z,24.32
2018-11-23T08:56:19.407Z,24.28
2018-11-23T08:57:19.191Z,24.21
2018-11-23T08:59:12.085Z,24.29
2018-11-23T09:00:12.096Z,24.29
2018-11-23T09:02:05.271Z,24.29
2018-11-23T09:03:05.012Z,24.44
2018-11-23T09:04:57.931Z,24.30
2018-11-23T09:05:57.948Z,24.37
2018-11-23T09:07:51.113Z,24.30
2018-11-23T09:08:50.872Z,24.43
2018-11-23T09:10:44.336Z,24.43
2018-11-23T09:11:43.785Z,24.26
2018-11-23T09:13:36.856Z,24.40
2018-11-23T09:14:36.715Z,24.29
2018-11-23T09:16:29.621Z,24.40
2018-11-23T09:17:29.627Z,24.23
2018-11-23T09:19:22.929Z,24.23
2018-11-23T09:20:22.670Z,24.25
2018-11-23T09:22:15.596Z,24.02
2018-11-23T09:23:15.611Z,24.08
2018-11-23T09:25:08.777Z,24.02
2018-11-23T09:26:08.534Z,23.95
2018-11-23T09:28:01.440Z,24.08
2018-11-23T09:29:01.449Z,24.03
2018-11-23T09:30:54.624Z,24.08
2018-11-23T09:31:54.382Z,24.05
2018-11-23T09:33:47.335Z,24.21
2018-11-23T09:34:47.317Z,24.15
2018-11-23T09:36:40.481Z,24.20
2018-11-23T09:37:40.227Z,24.20
2018-11-23T09:39:33.156Z,24.18
2018-11-23T09:40:33.167Z,24.07
2018-11-23T09:42:27.129Z,24.10
2018-11-23T09:43:26.095Z,24.10
2018-11-23T09:45:19.020Z,24.20
2018-11-23T09:46:19.094Z,24.17
2018-11-23T09:48:12.989Z,24.05
2018-11-23T09:49:11.950Z,24.21
2018-11-23T09:51:04.861Z,24.08
2018-11-23T09:52:04.876Z,24.20
2018-11-23T09:53:58.039Z,24.20
2018-11-23T09:54:57.791Z,24.11
2018-11-23T09:56:50.702Z,24.11
2018-11-23T09:57:50.718Z,24.10
2018-11-23T09:59:43.890Z,24.08
2018-11-23T10:00:43.635Z,24.07
2018-11-23T10:02:37.133Z,24.14
2018-11-23T10:03:36.610Z,24.11
2018-11-23T10:05:29.792Z,23.98
2018-11-23T10:06:29.541Z,24.00
2018-11-23T10:08:22.459Z,24.00
2018-11-23T10:09:22.467Z,23.99
2018-11-23T10:11:15.643Z,23.93
2018-11-23T10:12:15.388Z,24.03
2018-11-23T10:14:08.304Z,24.03
2018-11-23T10:15:08.307Z,23.98
2018-11-23T10:17:02.271Z,24.02
2018-11-23T10:18:02.210Z,24.02
2018-11-23T10:19:58.031Z,23.99
2018-11-23T10:20:54.170Z,23.98
2018-11-23T10:22:51.636Z,24.02
2018-11-23T10:23:47.133Z,23.84
2018-11-23T10:25:40.016Z,23.83
2018-11-23T10:26:40.053Z,23.84
2018-11-23T10:28:36.251Z,23.84
2018-11-23T10:29:32.941Z,23.88
2018-11-23T10:31:25.871Z,23.80
2018-11-23T10:32:25.882Z,23.73
2018-11-23T10:34:27.117Z,23.73
2018-11-23T10:35:18.821Z,23.76
2018-11-23T10:37:11.771Z,23.76
2018-11-23T10:38:11.750Z,23.80
2018-11-23T10:40:04.914Z,23.76
2018-11-23T10:41:04.668Z,23.77
2018-11-23T10:42:57.584Z,23.71
2018-11-23T10:43:57.590Z,23.68
2018-11-23T10:45:50.769Z,23.68
2018-11-23T10:46:50.604Z,23.62
2018-11-23T10:48:43.443Z,23.58
2018-11-23T10:49:43.446Z,23.62
2018-11-23T10:51:36.441Z,23.71
2018-11-23T10:52:36.371Z,23.68
2018-11-23T10:54:29.290Z,23.73
2018-11-23T10:55:29.301Z,23.70
2018-11-23T10:57:22.659Z,23.74
2018-11-23T10:58:22.420Z,23.73
2018-11-23T11:00:15.328Z,23.74
2018-11-23T11:01:15.372Z,23.59
2018-11-23T11:03:08.517Z,23.62
2018-11-23T11:04:08.263Z,23.58
2018-11-23T11:06:01.734Z,23.55
2018-11-23T11:07:01.176Z,23.56
2018-11-23T11:08:54.176Z,23.47
2018-11-23T11:09:54.110Z,23.48
2018-11-23T11:11:47.011Z,23.56
2018-11-23T11:12:47.020Z,23.61
2018-11-23T11:14:40.204Z,23.46
2018-11-23T11:15:40.013Z,23.46
2018-11-23T11:17:32.855Z,23.53
2018-11-23T11:18:32.864Z,23.44
2018-11-23T11:20:26.060Z,23.46
2018-11-23T11:21:25.811Z,23.44
2018-11-23T11:23:18.721Z,23.53
2018-11-23T11:24:18.748Z,23.43
2018-11-23T11:26:11.898Z,23.55
2018-11-23T11:27:11.651Z,23.47
2018-11-23T11:29:04.648Z,23.31
2018-11-23T11:30:04.577Z,23.33
2018-11-23T11:31:58.548Z,23.43
2018-11-23T11:32:57.516Z,23.38
2018-11-23T11:34:50.405Z,23.44
2018-11-23T11:35:50.415Z,23.38
2018-11-23T11:37:44.385Z,23.38
2018-11-23T11:38:44.326Z,23.34
2018-11-23T11:40:37.233Z,23.43
2018-11-23T11:41:37.240Z,23.38
2018-11-23T11:43:30.238Z,23.40
2018-11-23T11:44:30.162Z,23.36
2018-11-23T11:46:23.077Z,23.33
2018-11-23T11:47:23.089Z,23.43
2018-11-23T11:49:16.259Z,23.37
2018-11-23T11:50:16.025Z,23.40
2018-11-23T11:52:08.984Z,23.47
2018-11-23T11:53:08.993Z,23.44
2018-11-23T11:55:01.981Z,23.47
2018-11-23T11:56:01.917Z,23.47
2018-11-23T11:57:54.863Z,23.46
2018-11-23T11:58:54.880Z,23.48
2018-11-23T12:00:48.058Z,23.34
2018-11-23T12:01:47.808Z,23.44
2018-11-23T12:03:40.713Z,23.47
2018-11-23T12:04:40.725Z,23.47
2018-11-23T12:06:33.892Z,23.41
2018-11-23T12:07:33.646Z,23.31
2018-11-23T12:09:26.558Z,23.38
2018-11-23T12:10:26.573Z,23.41
2018-11-23T12:12:20.539Z,23.44
2018-11-23T12:13:19.496Z,23.41
2018-11-23T12:15:12.415Z,23.40
2018-11-23T12:16:12.412Z,23.43
2018-11-23T12:18:05.579Z,23.46
2018-11-23T12:19:05.664Z,23.40
2018-11-23T12:20:58.245Z,23.37
2018-11-23T12:21:58.259Z,23.52
2018-11-23T12:23:51.426Z,23.41
2018-11-23T12:24:51.186Z,23.36
2018-11-23T12:26:44.102Z,23.52
2018-11-23T12:27:44.108Z,23.40
2018-11-23T12:29:37.264Z,23.44
2018-11-23T12:30:37.019Z,23.52
2018-11-23T12:32:29.938Z,23.43
2018-11-23T12:33:29.940Z,23.44
2018-11-23T12:35:22.931Z,23.44
2018-11-23T12:36:22.859Z,23.44
2018-11-23T12:38:16.330Z,23.44
2018-11-23T12:39:15.785Z,23.48
2018-11-23T12:41:09.010Z,23.51
2018-11-23T12:42:08.738Z,23.44
2018-11-23T12:44:01.653Z,23.44
2018-11-23T12:45:01.667Z,23.46
2018-11-23T12:46:54.859Z,23.44
2018-11-23T12:47:54.593Z,23.43
2018-11-23T12:49:47.508Z,23.43
2018-11-23T12:50:47.514Z,23.46
2018-11-23T12:52:40.695Z,23.40
2018-11-23T12:53:40.463Z,23.38
2018-11-23T12:55:33.354Z,23.36
2018-11-23T12:56:33.367Z,23.33
2018-11-23T12:58:26.541Z,23.40
2018-11-23T12:59:26.289Z,23.33
2018-11-23T13:01:19.215Z,23.34
2018-11-23T13:02:19.234Z,23.31
2018-11-23T13:04:12.322Z,23.36
2018-11-23T13:05:12.176Z,23.34
2018-11-23T13:07:05.093Z,23.34
2018-11-23T13:08:05.093Z,23.31
2018-11-23T13:09:58.260Z,23.31
2018-11-23T13:10:58.009Z,23.40
2018-11-23T13:12:51.172Z,23.38
2018-11-23T13:13:50.943Z,23.36
2018-11-23T13:15:44.104Z,23.36
2018-11-23T13:16:43.858Z,23.33
2018-11-23T13:18:36.816Z,23.28
2018-11-23T13:19:36.783Z,23.38
2018-11-23T13:21:29.995Z,23.33
2018-11-23T13:22:29.740Z,23.40
2018-11-23T13:24:22.648Z,23.36
2018-11-23T13:25:22.669Z,23.22
2018-11-23T13:27:15.832Z,23.25
2018-11-23T13:28:15.589Z,23.21
2018-11-23T13:30:08.513Z,23.25
2018-11-23T13:31:08.517Z,23.21
2018-11-23T13:33:01.699Z,23.31
2018-11-23T13:34:01.440Z,23.22
2018-11-23T13:35:54.349Z,23.31
2018-11-23T13:36:54.359Z,23.31
2018-11-23T13:38:47.536Z,23.33
2018-11-23T13:39:47.282Z,23.34
2018-11-23T13:41:40.197Z,23.31
2018-11-23T13:42:40.216Z,23.28
2018-11-23T13:44:33.376Z,23.36
2018-11-23T13:45:33.184Z,23.28
2018-11-23T13:47:26.044Z,23.38
2018-11-23T13:48:26.053Z,23.28
2018-11-23T13:50:26.780Z,23.37
2018-11-23T13:51:19.012Z,23.31
2018-11-23T13:53:11.879Z,23.34
2018-11-23T13:54:11.891Z,23.40
2018-11-23T13:56:05.852Z,23.37
2018-11-23T13:57:04.820Z,23.27
2018-11-23T13:58:57.725Z,23.31
2018-11-23T13:59:57.731Z,23.38
2018-11-23T14:01:50.729Z,23.28
2018-11-23T14:02:50.656Z,23.27
2018-11-23T14:04:43.626Z,23.24
2018-11-23T14:05:43.579Z,23.20
2018-11-23T14:07:36.792Z,23.13
2018-11-23T14:08:36.544Z,23.18
2018-11-23T14:10:29.474Z,23.14
2018-11-23T14:11:29.475Z,23.06
2018-11-23T14:13:22.669Z,23.02
2018-11-23T14:14:22.410Z,23.02
2018-11-23T14:16:15.322Z,22.98
2018-11-23T14:17:15.325Z,23.05
2018-11-23T14:19:08.592Z,23.07
2018-11-23T14:20:08.446Z,23.06
2018-11-23T14:22:01.357Z,23.10
2018-11-23T14:23:01.372Z,23.07
2018-11-23T14:24:54.378Z,23.03
2018-11-23T14:25:54.888Z,23.03
2018-11-23T14:27:47.219Z,23.07
2018-11-23T14:28:47.244Z,23.09
2018-11-23T14:30:40.402Z,23.03
2018-11-23T14:31:40.165Z,23.06
2018-11-23T14:33:33.084Z,23.03
2018-11-23T14:34:33.077Z,22.99
2018-11-23T14:36:26.288Z,23.09
2018-11-23T14:37:25.999Z,23.09
2018-11-23T14:39:19.035Z,23.06
2018-11-23T14:40:18.966Z,23.02
2018-11-23T14:42:12.188Z,23.09
2018-11-23T14:43:11.886Z,23.07
2018-11-23T14:45:04.797Z,23.02
2018-11-23T14:46:04.816Z,23.14
2018-11-23T14:47:57.788Z,23.02
2018-11-23T14:48:57.727Z,23.06
2018-11-23T14:50:50.647Z,23.09
2018-11-23T14:51:50.659Z,23.03
2018-11-23T14:53:43.642Z,23.09
2018-11-23T14:54:43.572Z,23.06
2018-11-23T14:56:36.559Z,23.15
2018-11-23T14:57:36.495Z,23.07
2018-11-23T14:59:30.369Z,23.07
2018-11-23T15:00:29.411Z,23.14
2018-11-23T15:02:22.323Z,23.18
2018-11-23T15:03:22.340Z,23.10
2018-11-23T15:05:16.299Z,23.18
2018-11-23T15:06:15.258Z,23.15
2018-11-23T15:08:08.168Z,23.17
2018-11-23T15:09:08.178Z,23.10
2018-11-23T15:11:01.355Z,23.13
2018-11-23T15:12:01.110Z,23.15
2018-11-23T15:13:54.021Z,23.18
2018-11-23T15:14:54.019Z,23.06
2018-11-23T15:16:47.199Z,23.06
2018-11-23T15:17:46.943Z,23.06
2018-11-23T15:19:39.857Z,23.07
2018-11-23T15:20:39.881Z,23.06
2018-11-23T15:22:32.857Z,23.02
2018-11-23T15:23:32.792Z,23.03
2018-11-23T15:25:25.698Z,23.03
2018-11-23T15:26:25.708Z,23.06
2018-11-23T15:28:19.074Z,23.02
2018-11-23T15:29:18.825Z,22.98
2018-11-23T15:31:11.745Z,22.93
2018-11-23T15:32:11.746Z,22.90
2018-11-23T15:34:04.937Z,22.93
2018-11-23T15:35:04.688Z,22.93
2018-11-23T15:36:57.604Z,22.90
2018-11-23T15:37:57.604Z,22.96
2018-11-23T15:39:50.779Z,22.93
2018-11-23T15:40:50.524Z,22.90
2018-11-23T15:42:43.435Z,22.90
2018-11-23T15:43:43.443Z,22.87
2018-11-23T15:45:36.618Z,22.85
2018-11-23T15:46:36.365Z,22.87
2018-11-23T15:48:29.284Z,22.83
2018-11-23T15:49:29.291Z,22.84
2018-11-23T15:51:22.473Z,22.78
2018-11-23T15:52:22.221Z,22.77
2018-11-23T15:54:15.121Z,22.78
2018-11-23T15:55:15.132Z,22.77
2018-11-23T15:57:09.870Z,22.73
2018-11-23T15:58:08.050Z,22.77
2018-11-23T16:00:00.967Z,22.75
2018-11-23T16:01:00.978Z,22.75
2018-11-23T16:02:54.054Z,22.77
2018-11-23T16:03:53.884Z,22.72
2018-11-23T16:05:47.373Z,22.69
2018-11-23T16:06:46.804Z,22.68
2018-11-23T16:08:39.970Z,22.69
2018-11-23T16:09:39.728Z,22.63
2018-11-23T16:11:32.636Z,22.59
2018-11-23T16:12:32.647Z,22.59
2018-11-23T16:14:25.812Z,22.59
2018-11-23T16:15:25.570Z,22.54
2018-11-23T16:17:18.485Z,22.59
2018-11-23T16:18:18.504Z,22.58
2018-11-23T16:20:11.660Z,22.66
2018-11-23T16:21:11.416Z,22.62
2018-11-23T16:23:04.327Z,22.66
2018-11-23T16:24:04.344Z,22.59
2018-11-23T16:25:57.496Z,22.58
2018-11-23T16:26:57.259Z,22.59
2018-11-23T16:28:50.165Z,22.58
2018-11-23T16:29:50.180Z,22.56
2018-11-23T16:31:45.431Z,22.63
2018-11-23T16:32:43.119Z,22.69
2018-11-23T16:34:36.006Z,22.65
2018-11-23T16:35:36.023Z,22.60
2018-11-23T16:37:29.189Z,22.69
2018-11-23T16:38:28.939Z,22.56
2018-11-23T16:40:21.843Z,22.50
2018-11-23T16:41:21.855Z,22.53
2018-11-23T16:43:15.030Z,22.51
2018-11-23T16:44:14.778Z,22.54
2018-11-23T16:46:07.690Z,22.53
2018-11-23T16:47:07.701Z,22.47
2018-11-23T16:49:00.885Z,22.48
2018-11-23T16:50:00.637Z,22.48
2018-11-23T16:51:53.534Z,22.51
2018-11-23T16:52:53.539Z,22.56
2018-11-23T16:54:46.712Z,22.53
2018-11-23T16:55:46.464Z,22.43
2018-11-23T16:57:39.365Z,22.43
2018-11-23T16:58:39.383Z,22.44
2018-11-23T17:00:32.453Z,22.48
2018-11-23T17:01:32.297Z,22.44
2018-11-23T17:03:25.213Z,22.44
2018-11-23T17:04:25.214Z,22.43
2018-11-23T17:06:18.279Z,22.40
2018-11-23T17:07:18.141Z,22.45
2018-11-23T17:09:11.056Z,22.47
2018-11-23T17:10:11.059Z,22.43
2018-11-23T17:12:04.052Z,22.41
2018-11-23T17:13:03.982Z,22.41
2018-11-23T17:14:56.888Z,22.43
2018-11-23T17:15:56.903Z,22.38
2018-11-23T17:17:49.882Z,22.38
2018-11-23T17:18:49.825Z,22.35
2018-11-23T17:20:42.740Z,22.33
2018-11-23T17:21:42.738Z,22.32
2018-11-23T17:23:36.716Z,22.45
2018-11-23T17:24:35.673Z,22.38
2018-11-23T17:26:29.129Z,22.38
2018-11-23T17:27:28.584Z,22.35
2018-11-23T17:29:23.217Z,22.33
2018-11-23T17:30:21.511Z,22.17
2018-11-23T17:32:14.445Z,22.23
2018-11-23T17:33:14.428Z,22.19
2018-11-23T17:35:07.587Z,22.22
2018-11-23T17:36:07.355Z,22.20
2018-11-23T17:38:00.804Z,22.25
2018-11-23T17:39:00.260Z,22.15
2018-11-23T17:40:53.351Z,22.15
2018-11-23T17:41:53.174Z,22.05
2018-11-23T17:43:46.090Z,22.13
2018-11-23T17:44:46.098Z,22.19
2018-11-23T17:46:39.178Z,22.22
2018-11-23T17:47:39.018Z,22.20
2018-11-23T17:49:31.972Z,22.20
2018-11-23T17:50:31.938Z,22.14
2018-11-23T17:52:25.023Z,22.13
2018-11-23T17:53:24.867Z,22.14
2018-11-23T17:55:17.769Z,22.22
2018-11-23T17:56:17.777Z,22.20
2018-11-23T17:58:10.863Z,22.25
2018-11-23T17:59:10.695Z,22.19
2018-11-23T18:01:04.174Z,22.10
2018-11-23T18:02:03.621Z,22.13
2018-11-23T18:03:56.789Z,22.05
2018-11-23T18:04:56.541Z,22.04
2018-11-23T18:06:49.451Z,22.10
2018-11-23T18:07:49.464Z,22.13
2018-11-23T18:09:42.630Z,22.11
2018-11-23T18:10:42.381Z,22.17
2018-11-23T18:12:35.303Z,22.08
2018-11-23T18:13:35.299Z,22.10
2018-11-23T18:15:28.481Z,22.13
2018-11-23T18:16:28.219Z,22.05
2018-11-23T18:18:21.129Z,22.13
2018-11-23T18:19:21.135Z,22.07
2018-11-23T18:21:14.227Z,22.04
2018-11-23T18:22:14.062Z,22.05
2018-11-23T18:24:06.979Z,22.08
2018-11-23T18:25:06.980Z,22.03
2018-11-23T18:26:59.959Z,22.03
2018-11-23T18:27:59.905Z,21.99
2018-11-23T18:29:52.840Z,22.01
2018-11-23T18:30:52.828Z,22.04
2018-11-23T18:32:45.887Z,21.96
2018-11-23T18:33:45.741Z,21.88
2018-11-23T18:35:38.668Z,21.92
2018-11-23T18:36:38.663Z,21.82
2018-11-23T18:38:31.884Z,21.76